Time;durP1;ratioP1;P1;durP2;ratioP2;P2;SDS_P1;SDS_P2;PMS_P1;PMS_P2;Temp;Humidity;BMP_temperature;BMP_pressure;BME280_temperature;BME280_humidity;BME280_pressure;Samples;Min_cycle;Max_cycle;Signal;HPM_P1;HPM_P2
2023/05/09 00:01:44;;;;;;;14.10;5.03;;;;;;;42.60;33.55;101009.66;5031077;28;20459;-83
2023/05/09 00:04:10;;;;;;;13.60;4.07;;;;;;;42.58;33.78;101005.63;5030166;28;20271;-82
2023/05/09 00:06:36;;;;;;;13.63;5.80;;;;;;;42.56;33.72;101010.63;5030489;28;20474;-82
2023/05/09 00:09:03;;;;;;;19.23;7.07;;;;;;;42.42;34.62;101004.63;5030936;28;20428;-82
2023/05/09 00:11:30;;;;;;;15.30;7.20;;;;;;;42.28;35.01;101013.88;5035985;28;20454;-83
2023/05/09 00:13:56;;;;;;;19.20;12.40;;;;;;;42.24;35.08;101004.78;5031140;28;20431;-82
2023/05/09 00:16:22;;;;;;;22.80;16.00;;;;;;;42.13;35.28;100995.38;5031090;28;20431;-82
2023/05/09 00:18:49;;;;;;;21.43;14.00;;;;;;;41.99;36.10;101011.19;5031947;28;20554;-83
2023/05/09 00:21:16;;;;;;;24.60;14.77;;;;;;;41.97;36.07;101005.28;5031221;28;20458;-83
2023/05/09 00:23:42;;;;;;;25.43;16.03;;;;;;;42.03;35.94;101010.19;5030570;28;20419;-82
2023/05/09 00:26:09;;;;;;;22.27;15.27;;;;;;;42.10;35.75;101012.38;5030934;28;20435;-83
2023/05/09 00:28:36;;;;;;;26.67;15.93;;;;;;;41.90;35.79;101005.00;5030809;28;20188;-82
2023/05/09 00:31:03;;;;;;;27.73;16.83;;;;;;;41.89;35.81;100997.97;5030913;28;20445;-83
2023/05/09 00:33:29;;;;;;;21.17;13.87;;;;;;;42.07;35.59;101018.53;5030829;28;20428;-83
2023/05/09 00:35:55;;;;;;;18.57;14.27;;;;;;;41.88;35.66;100993.66;5030959;28;20423;-83
2023/05/09 00:38:22;;;;;;;22.33;14.23;;;;;;;41.90;35.54;100999.56;5030241;28;20511;-82
2023/05/09 00:40:48;;;;;;;17.47;13.33;;;;;;;41.90;35.82;101000.34;5030978;28;20463;-83
2023/05/09 00:43:15;;;;;;;20.53;14.47;;;;;;;41.78;36.06;100998.34;5030721;28;20430;-82
2023/05/09 00:45:44;;;;;;;19.97;12.50;;;;;;;41.83;35.88;100997.34;5030914;28;20958;-83
2023/05/09 00:48:10;;;;;;;23.37;15.20;;;;;;;42.00;35.66;100988.28;5026206;28;20443;-82
2023/05/09 00:50:37;;;;;;;22.27;14.70;;;;;;;42.07;35.36;100985.81;5030427;28;20423;-82
2023/05/09 00:53:04;;;;;;;35.10;19.30;;;;;;;41.80;35.41;100951.69;5033494;28;20434;-83
2023/05/09 00:55:31;;;;;;;22.47;16.13;;;;;;;42.02;35.86;100986.81;5034598;28;20450;-82
2023/05/09 00:57:57;;;;;;;30.33;18.50;;;;;;;41.90;35.60;100958.69;5034550;28;20966;-82
2023/05/09 01:00:23;;;;;;;26.17;17.30;;;;;;;41.77;35.91;100955.88;5034535;28;21034;-82
2023/05/09 01:02:54;;;;;;;20.83;14.43;;;;;;;41.56;35.91;100968.66;5034542;28;20454;-82
2023/05/09 01:05:24;;;;;;;20.63;14.10;;;;;;;41.79;35.46;100953.63;5033998;28;20465;-82
2023/05/09 01:08:06;;;;;;;19.17;13.97;;;;;;;41.80;35.75;100957.94;5034203;28;20824;-83
2023/05/09 01:10:52;;;;;;;19.33;11.80;;;;;;;41.70;35.49;100957.50;5034263;28;20423;-83
2023/05/09 01:13:47;;;;;;;25.60;13.70;;;;;;;41.78;35.54;100954.75;5023467;28;20477;-82
2023/05/09 01:16:37;;;;;;;19.10;13.03;;;;;;;41.70;35.48;100947.41;5008137;28;20419;-82
2023/05/09 01:19:37;;;;;;;25.03;13.90;;;;;;;41.75;35.74;100936.34;5034124;28;20415;-82
2023/05/09 01:22:07;;;;;;;17.63;12.50;;;;;;;41.66;35.68;100938.31;5035414;28;20546;-82
2023/05/09 01:25:15;;;;;;;20.60;12.93;;;;;;;41.61;36.15;100924.88;5034355;28;20442;-82
2023/05/09 01:28:06;;;;;;;18.40;12.37;;;;;;;41.77;35.50;100931.38;5001648;28;20412;-82
2023/05/09 01:30:35;;;;;;;21.33;12.40;;;;;;;41.86;35.42;100929.38;5033713;28;20530;-82
2023/05/09 01:33:06;;;;;;;22.23;12.00;;;;;;;41.95;35.25;100917.63;5033986;28;20423;-82
2023/05/09 01:35:34;;;;;;;21.27;12.60;;;;;;;42.01;34.98;100929.91;5035253;28;20560;-82
2023/05/09 01:38:04;;;;;;;24.60;14.50;;;;;;;41.87;35.26;100919.28;5033945;28;20427;-83
2023/05/09 01:40:32;;;;;;;23.50;13.00;;;;;;;41.89;35.47;100932.56;5033550;28;20466;-81
2023/05/09 01:43:05;;;;;;;22.47;14.00;;;;;;;41.95;35.34;100936.69;5033789;28;20422;-82
2023/05/09 01:45:33;;;;;;;15.20;10.77;;;;;;;41.92;35.25;100934.63;5022224;28;20912;-82
2023/05/09 01:48:00;;;;;;;21.00;12.33;;;;;;;41.52;35.83;100929.59;5033595;28;20506;-82
2023/05/09 01:50:28;;;;;;;20.53;11.57;;;;;;;41.33;36.62;100930.81;5033511;28;20930;-84
2023/05/09 01:52:55;;;;;;;21.13;11.03;;;;;;;41.67;35.80;100942.63;5033270;28;20439;-83
2023/05/09 01:55:25;;;;;;;16.23;11.20;;;;;;;41.65;36.12;100944.88;5033636;28;20801;-84
2023/05/09 01:57:53;;;;;;;24.23;14.17;;;;;;;41.67;36.04;100936.38;5033092;28;20447;-84
2023/05/09 02:00:21;;;;;;;14.77;10.10;;;;;;;41.74;35.80;100942.94;5033181;28;20605;-83
2023/05/09 02:02:47;;;;;;;17.97;12.13;;;;;;;41.59;36.10;100940.75;5032696;28;20467;-84
2023/05/09 02:05:15;;;;;;;18.37;11.93;;;;;;;41.73;35.86;100943.22;5032110;28;20477;-82
2023/05/09 02:07:42;;;;;;;17.93;10.27;;;;;;;41.52;35.94;100946.72;5032763;28;20927;-82
2023/05/09 02:10:09;;;;;;;18.43;10.87;;;;;;;41.61;35.84;100952.09;5033237;28;20451;-82
2023/05/09 02:12:35;;;;;;;17.57;11.23;;;;;;;41.66;35.63;100948.41;5032678;28;20419;-82
2023/05/09 02:15:02;;;;;;;17.77;12.50;;;;;;;41.73;35.71;100952.19;5013758;28;20444;-82
2023/05/09 02:17:29;;;;;;;17.07;11.40;;;;;;;41.62;35.73;100940.09;5029921;28;20997;-82
2023/05/09 02:19:56;;;;;;;20.27;12.97;;;;;;;41.65;35.66;100933.97;5034427;28;20423;-81
2023/05/09 02:22:23;;;;;;;21.23;12.37;;;;;;;41.70;35.50;100919.38;5031288;28;20947;-82
2023/05/09 02:24:49;;;;;;;19.00;11.47;;;;;;;41.60;35.04;100926.78;5032771;28;20427;-82
2023/05/09 02:27:16;;;;;;;18.63;11.60;;;;;;;41.59;35.39;100917.03;5032228;28;20427;-82
2023/05/09 02:29:48;;;;;;;17.70;10.33;;;;;;;41.47;35.50;100916.16;5032806;28;20558;-82
2023/05/09 02:32:24;;;;;;;15.50;11.30;;;;;;;41.46;35.31;100909.13;5032615;28;20532;-82
2023/05/09 02:34:52;;;;;;;18.03;10.83;;;;;;;41.65;35.08;100919.56;5032950;28;20924;-82
2023/05/09 02:37:19;;;;;;;17.87;11.27;;;;;;;41.63;35.13;100914.47;5032566;28;20455;-82
2023/05/09 02:39:47;;;;;;;18.30;11.67;;;;;;;41.55;35.38;100918.03;5033881;28;20442;-82
2023/05/09 02:42:20;;;;;;;16.77;10.73;;;;;;;41.61;35.01;100917.50;5032180;28;20419;-82
2023/05/09 02:44:46;;;;;;;16.60;9.60;;;;;;;41.64;34.82;100913.34;5032553;28;20807;-84
2023/05/09 02:47:13;;;;;;;16.20;10.07;;;;;;;41.71;34.74;100923.69;5032576;28;20427;-83
2023/05/09 02:49:38;;;;;;;16.60;11.13;;;;;;;41.73;34.68;100914.06;5032703;28;20514;-84
2023/05/09 02:52:04;;;;;;;19.40;11.27;;;;;;;41.76;34.36;100915.38;5031979;28;20510;-84
2023/05/09 02:54:30;;;;;;;16.17;12.60;;;;;;;41.55;35.13;100909.84;5032184;28;20180;-84
2023/05/09 02:56:56;;;;;;;17.33;11.57;;;;;;;41.61;34.50;100909.31;5030752;28;20420;-84
2023/05/09 02:59:22;;;;;;;19.00;10.20;;;;;;;41.64;34.61;100909.81;5028261;28;20271;-84
2023/05/09 03:01:48;;;;;;;17.00;10.70;;;;;;;41.46;34.97;100917.28;5032239;28;20471;-84
2023/05/09 03:04:15;;;;;;;16.30;10.40;;;;;;;41.54;34.79;100909.06;5031662;28;20655;-82
2023/05/09 03:06:41;;;;;;;18.60;11.17;;;;;;;41.57;34.87;100908.41;5030038;28;20708;-82
2023/05/09 03:09:07;;;;;;;19.30;11.83;;;;;;;41.47;34.44;100892.44;5031641;28;20427;-82
2023/05/09 03:11:35;;;;;;;41.90;25.30;;;;;;;41.45;35.02;100923.88;5032117;28;20232;-81
2023/05/09 03:14:02;;;;;;;27.80;19.00;;;;;;;41.30;35.18;100928.69;5031066;28;20431;-82
2023/05/09 03:16:28;;;;;;;24.50;14.87;;;;;;;41.45;35.08;100930.13;5015423;28;20974;-82
2023/05/09 03:18:54;;;;;;;23.40;11.40;;;;;;;41.42;34.69;100924.50;5031784;28;20443;-82
2023/05/09 03:21:20;;;;;;;18.60;11.30;;;;;;;41.52;34.81;100935.03;5032007;28;20459;-82
2023/05/09 03:23:46;;;;;;;23.97;12.50;;;;;;;41.65;34.18;100939.44;5031187;28;20426;-82
2023/05/09 03:26:12;;;;;;;16.63;10.60;;;;;;;41.61;34.51;100941.22;5031709;28;20420;-82
2023/05/09 03:28:38;;;;;;;18.67;11.60;;;;;;;41.59;34.64;100951.66;5031438;28;20431;-82
2023/05/09 03:31:05;;;;;;;19.40;10.53;;;;;;;41.61;34.53;100946.66;5031102;28;20526;-82
2023/05/09 03:33:31;;;;;;;20.57;10.67;;;;;;;41.57;34.58;100937.56;5031525;28;20489;-81
2023/05/09 03:35:56;;;;;;;20.10;13.10;;;;;;;41.62;34.50;100942.84;5031783;28;20431;-81
2023/05/09 03:38:23;;;;;;;15.83;10.13;;;;;;;41.77;34.38;100936.81;5031033;28;20454;-82
2023/05/09 03:40:50;;;;;;;22.13;12.03;;;;;;;41.60;34.19;100918.63;5031720;28;20231;-82
2023/05/09 03:43:16;;;;;;;18.13;10.80;;;;;;;41.49;34.73;100924.78;5032950;28;20420;-82
2023/05/09 03:45:42;;;;;;;17.87;10.43;;;;;;;41.28;34.91;100932.88;5031609;28;20982;-82
2023/05/09 03:48:10;;;;;;;16.83;10.13;;;;;;;41.30;35.13;100933.34;5031366;28;20431;-82
2023/05/09 03:50:36;;;;;;;17.97;10.50;;;;;;;41.28;34.95;100919.28;5033116;28;20431;-82
2023/05/09 03:53:02;;;;;;;21.23;11.43;;;;;;;41.30;35.06;100917.81;5013668;28;20502;-82
2023/05/09 03:55:28;;;;;;;17.27;12.83;;;;;;;41.32;34.84;100926.50;5032745;28;20423;-82
2023/05/09 03:57:54;;;;;;;32.10;19.80;;;;;;;41.24;35.07;100927.28;5031344;28;20470;-82
2023/05/09 04:00:21;;;;;;;21.70;15.27;;;;;;;41.37;34.82;100935.59;5031247;28;20506;-82
2023/05/09 04:02:50;;;;;;;23.33;13.07;;;;;;;41.29;34.86;100938.00;5031156;28;20420;-81
2023/05/09 04:05:17;;;;;;;20.30;10.30;;;;;;;41.24;34.98;100938.19;5031082;28;20479;-82
2023/05/09 04:07:43;;;;;;;16.70;11.03;;;;;;;41.13;35.36;100944.31;5030667;28;20848;-83
2023/05/09 04:10:10;;;;;;;15.37;9.47;;;;;;;40.96;35.48;100942.47;5031032;28;20493;-82
2023/05/09 04:12:36;;;;;;;15.80;10.43;;;;;;;41.13;35.45;100950.56;5030921;28;20435;-82
2023/05/09 04:15:02;;;;;;;16.43;10.00;;;;;;;41.12;34.88;100951.69;5030489;28;20485;-82
2023/05/09 04:17:28;;;;;;;16.20;10.30;;;;;;;41.06;35.03;100940.19;5030822;28;20497;-82
2023/05/09 04:19:55;;;;;;;15.40;9.17;;;;;;;40.99;35.23;100934.44;5030742;28;20920;-82
2023/05/09 04:22:23;;;;;;;13.93;8.87;;;;;;;40.85;35.06;100928.38;5033412;28;20172;-83
2023/05/09 04:24:50;;;;;;;12.73;8.50;;;;;;;40.80;34.80;100923.91;5031133;28;20616;-81
2023/05/09 04:27:15;;;;;;;13.87;7.37;;;;;;;40.49;35.74;100918.72;5032125;28;20420;-82
2023/05/09 04:29:42;;;;;;;20.23;9.53;;;;;;;40.66;35.24;100920.59;5032035;28;20440;-81
2023/05/09 04:32:08;;;;;;;16.80;10.43;;;;;;;40.62;34.85;100916.13;5032607;28;20436;-82
2023/05/09 04:34:34;;;;;;;16.60;9.67;;;;;;;40.82;34.30;100888.22;5032424;28;20430;-83
2023/05/09 04:37:00;;;;;;;13.13;8.53;;;;;;;41.03;34.26;100891.88;5031175;28;20423;-82
2023/05/09 04:39:25;;;;;;;14.80;9.93;;;;;;;41.00;34.36;100897.94;5031735;28;20827;-80
2023/05/09 04:41:51;;;;;;;14.40;8.10;;;;;;;41.08;34.51;100913.44;5032029;28;20224;-82
2023/05/09 04:44:20;;;;;;;14.87;8.17;;;;;;;41.08;34.03;100918.09;5032638;28;20495;-81
2023/05/09 04:46:46;;;;;;;14.37;9.30;;;;;;;41.01;34.59;100925.97;5012460;28;20425;-82
2023/05/09 04:49:12;;;;;;;21.33;11.33;;;;;;;41.05;34.42;100922.25;5021051;28;20518;-82
2023/05/09 04:51:38;;;;;;;19.67;10.00;;;;;;;40.96;34.81;100923.44;5030225;28;20185;-82
2023/05/09 04:54:04;;;;;;;17.70;10.33;;;;;;;41.03;34.66;100924.50;5030162;28;20485;-82
2023/05/09 04:56:29;;;;;;;17.57;9.80;;;;;;;41.04;34.79;100922.59;5030335;28;20575;-82
2023/05/09 04:58:55;;;;;;;25.13;10.20;;;;;;;41.06;34.59;100928.50;5031269;28;20454;-82
2023/05/09 05:01:21;;;;;;;15.43;9.00;;;;;;;41.09;34.80;100949.63;5029683;28;20677;-82
2023/05/09 05:03:47;;;;;;;18.10;11.70;;;;;;;40.95;35.29;100935.44;5031669;28;20200;-82
2023/05/09 05:06:13;;;;;;;18.03;11.90;;;;;;;40.61;35.32;100934.38;5031456;28;20593;-82
2023/05/09 05:08:39;;;;;;;18.27;13.60;;;;;;;40.87;34.98;100947.09;5030870;28;20455;-81
2023/05/09 05:11:05;;;;;;;27.97;12.07;;;;;;;40.88;35.11;100949.50;5030305;28;20439;-82
2023/05/09 05:13:31;;;;;;;21.17;14.37;;;;;;;41.03;35.17;100962.59;5030219;28;20268;-81
2023/05/09 05:15:57;;;;;;;23.83;13.63;;;;;;;41.07;34.91;100971.72;5031495;28;20519;-82
2023/05/09 05:18:23;;;;;;;20.17;11.37;;;;;;;40.95;35.20;100965.38;5031837;28;20498;-82
2023/05/09 05:20:49;;;;;;;16.67;10.20;;;;;;;41.08;34.76;100967.09;5029119;28;20451;-82
2023/05/09 05:23:18;;;;;;;17.73;10.97;;;;;;;41.19;35.00;100967.50;5024673;28;20424;-82
2023/05/09 05:25:45;;;;;;;20.17;10.80;;;;;;;40.65;35.46;100954.38;5031539;28;20474;-82
2023/05/09 05:28:11;;;;;;;32.53;10.33;;;;;;;41.00;35.08;100970.63;5030087;28;20464;-82
2023/05/09 05:30:38;;;;;;;20.70;12.30;;;;;;;40.98;34.49;100986.47;5027493;28;20431;-83
2023/05/09 05:33:04;;;;;;;21.87;10.57;;;;;;;41.08;34.51;100986.13;5026305;28;20181;-82
2023/05/09 05:35:30;;;;;;;18.37;12.27;;;;;;;41.11;34.45;100984.66;5017491;28;20488;-82
2023/05/09 05:37:56;;;;;;;23.30;12.50;;;;;;;41.21;34.46;101011.53;5030270;28;20455;-82
2023/05/09 05:40:22;;;;;;;28.63;14.10;;;;;;;41.10;34.56;101018.44;5027745;28;20232;-82
2023/05/09 05:42:48;;;;;;;16.63;11.83;;;;;;;40.77;35.12;101003.47;5025623;28;20434;-83
2023/05/09 05:45:15;;;;;;;19.90;12.93;;;;;;;40.95;34.39;101009.69;5033601;28;20204;-82
2023/05/09 05:47:41;;;;;;;26.00;13.17;;;;;;;40.99;34.29;101023.44;5033673;28;20516;-82
2023/05/09 05:50:10;;;;;;;25.70;13.80;;;;;;;41.05;34.08;101025.66;5033348;28;20573;-81
2023/05/09 05:52:37;;;;;;;48.23;16.00;;;;;;;41.16;33.71;101015.22;5034883;28;20805;-82
2023/05/09 05:55:04;;;;;;;49.10;14.60;;;;;;;41.17;33.79;101024.19;5033310;28;20939;-81
2023/05/09 05:57:30;;;;;;;24.77;15.50;;;;;;;41.17;33.95;101035.88;5031052;28;20435;-85
2023/05/09 05:59:57;;;;;;;29.73;13.77;;;;;;;41.23;33.46;101020.97;5033035;28;20420;-82
2023/05/09 06:02:23;;;;;;;39.10;18.43;;;;;;;41.24;33.85;101030.72;5033637;28;20945;-87
2023/05/09 06:04:49;;;;;;;46.90;22.57;;;;;;;41.33;33.47;101036.19;5033522;28;20427;-87
2023/05/09 06:07:15;;;;;;;29.67;18.10;;;;;;;41.31;33.76;101041.09;5032359;28;20228;-89
2023/05/09 06:09:40;;;;;;;40.83;19.33;;;;;;;41.33;34.28;101041.63;5033732;28;20196;-90
2023/05/09 06:12:06;;;;;;;30.33;19.13;;;;;;;41.38;33.91;101048.81;5031414;28;20431;-88
2023/05/09 06:14:34;;;;;;;30.03;20.67;;;;;;;41.19;34.02;101047.25;5033698;28;20185;-92
2023/05/09 06:17:00;;;;;;;22.13;16.33;;;;;;;41.21;34.12;101049.66;5033048;28;20427;-87
2023/05/09 06:19:26;;;;;;;36.07;15.77;;;;;;;41.20;34.16;101058.94;5032917;28;20921;-86
2023/05/09 06:21:52;;;;;;;19.47;13.50;;;;;;;41.33;34.08;101061.47;5033340;28;20474;-86
2023/05/09 06:24:17;;;;;;;37.30;17.83;;;;;;;41.48;33.67;101064.78;5032630;28;20415;-85
2023/05/09 06:26:43;;;;;;;26.53;15.43;;;;;;;41.48;33.88;101076.47;5033162;28;20310;-85
2023/05/09 06:29:09;;;;;;;35.23;19.07;;;;;;;41.59;33.76;101082.38;5033842;28;20572;-87
2023/05/09 06:31:37;;;;;;;32.20;19.13;;;;;;;41.60;33.62;101084.75;5032470;28;20443;-84
2023/05/09 06:34:06;;;;;;;47.03;21.83;;;;;;;41.67;33.27;101088.91;5030919;28;20181;-84
2023/05/09 06:36:33;;;;;;;33.67;21.67;;;;;;;41.74;33.62;101083.75;5030830;28;20423;-82
2023/05/09 06:39:00;;;;;;;44.73;22.03;;;;;;;41.65;33.61;101064.72;5032071;28;20426;-81
2023/05/09 06:41:26;;;;;;;47.87;22.67;;;;;;;41.69;33.80;101092.13;5030486;28;20538;-83
2023/05/09 06:43:52;;;;;;;39.00;21.37;;;;;;;41.42;34.52;101101.47;5030680;28;20522;-82
2023/05/09 06:46:18;;;;;;;37.80;21.50;;;;;;;41.53;34.41;101097.28;5030569;28;20431;-81
2023/05/09 06:48:44;;;;;;;37.37;19.47;;;;;;;41.49;34.40;101104.50;5033775;28;20423;-81
2023/05/09 06:51:10;;;;;;;42.47;18.90;;;;;;;41.37;34.63;101107.09;5033523;28;20435;-80
2023/05/09 06:53:36;;;;;;;33.10;17.00;;;;;;;41.47;34.30;101104.03;5032383;28;20947;-81
2023/05/09 06:56:03;;;;;;;33.90;18.43;;;;;;;41.45;34.51;101103.56;5032064;28;20430;-81
2023/05/09 06:58:29;;;;;;;29.13;15.63;;;;;;;41.40;34.66;101103.75;5019964;28;20423;-81
2023/05/09 07:00:55;;;;;;;33.63;16.80;;;;;;;41.44;34.51;101113.66;5031784;28;20463;-80
2023/05/09 07:03:21;;;;;;;30.93;16.70;;;;;;;41.52;34.83;101115.56;5032590;28;20185;-80
2023/05/09 07:05:47;;;;;;;34.67;17.90;;;;;;;41.42;34.96;101120.53;5025309;28;20483;-80
2023/05/09 07:08:13;;;;;;;43.13;19.30;;;;;;;41.30;35.24;101113.00;5032517;28;20684;-81
2023/05/09 07:10:39;;;;;;;33.53;16.47;;;;;;;41.44;34.90;101123.75;5032054;28;20215;-83
2023/05/09 07:13:05;;;;;;;30.43;19.53;;;;;;;41.47;34.60;101118.44;5019506;28;20824;-83
2023/05/09 07:15:31;;;;;;;36.53;21.37;;;;;;;41.55;34.58;101119.53;5031644;28;20427;-83
2023/05/09 07:17:57;;;;;;;40.13;18.87;;;;;;;41.52;35.01;101120.22;5031750;28;20474;-84
2023/05/09 07:20:23;;;;;;;37.43;15.73;;;;;;;41.48;35.11;101120.03;5031428;28;20538;-83
2023/05/09 07:22:48;;;;;;;27.80;13.53;;;;;;;41.45;35.22;101117.97;5031430;28;20595;-82
2023/05/09 07:25:14;;;;;;;38.97;18.17;;;;;;;41.61;35.03;101126.41;5031478;28;20279;-82
2023/05/09 07:27:40;;;;;;;32.33;17.03;;;;;;;41.65;34.87;101124.63;5032664;28;20459;-80
2023/05/09 07:30:08;;;;;;;26.73;14.57;;;;;;;41.66;35.04;101128.97;5031647;28;20416;-80
2023/05/09 07:32:34;;;;;;;35.13;17.93;;;;;;;41.73;35.14;101128.44;5027988;28;20331;-83
2023/05/09 07:35:00;;;;;;;44.63;18.10;;;;;;;41.84;35.07;101121.53;5031318;28;20864;-83
2023/05/09 07:37:26;;;;;;;46.73;20.77;;;;;;;41.84;35.00;101122.34;5031328;28;20416;-83
2023/05/09 07:39:52;;;;;;;27.20;19.03;;;;;;;41.70;35.22;101132.63;5026775;28;20455;-83
2023/05/09 07:42:18;;;;;;;31.97;22.10;;;;;;;41.76;35.28;101139.53;5031439;28;20201;-84
2023/05/09 07:44:44;;;;;;;33.50;19.70;;;;;;;41.68;35.21;101137.63;5031331;28;20184;-82
2023/05/09 07:47:10;;;;;;;35.67;17.40;;;;;;;41.76;35.23;101134.09;5033159;28;20800;-82
2023/05/09 07:49:36;;;;;;;29.70;17.77;;;;;;;41.75;35.26;101140.66;5031384;28;20424;-83
2023/05/09 07:52:02;;;;;;;24.97;17.77;;;;;;;41.95;34.86;101133.69;5031691;28;20459;-83
2023/05/09 07:54:28;;;;;;;31.33;18.93;;;;;;;42.06;34.91;101128.66;5031309;28;20427;-84
2023/05/09 07:56:54;;;;;;;32.23;16.70;;;;;;;42.11;34.81;101132.00;5031305;28;20435;-83
2023/05/09 07:59:20;;;;;;;23.37;14.83;;;;;;;42.04;34.89;101134.44;5030891;28;20275;-83
2023/05/09 08:01:46;;;;;;;26.20;13.50;;;;;;;42.06;35.20;101136.84;5030821;28;20547;-83
2023/05/09 08:04:12;;;;;;;33.37;16.83;;;;;;;42.23;35.27;101136.75;5030762;28;20424;-84
2023/05/09 08:06:38;;;;;;;26.20;14.33;;;;;;;42.27;35.21;101139.63;5030275;28;20472;-83
2023/05/09 08:09:04;;;;;;;23.50;14.67;;;;;;;42.32;35.45;101142.16;5030413;28;20436;-83
2023/05/09 08:11:33;;;;;;;21.00;14.30;;;;;;;42.26;35.33;101132.59;5031192;28;20184;-83
2023/05/09 08:13:59;;;;;;;18.43;11.13;;;;;;;42.25;35.67;101141.91;5030704;28;20424;-84
2023/05/09 08:16:25;;;;;;;21.40;9.67;;;;;;;42.08;35.51;101126.41;5031042;28;20481;-83
2023/05/09 08:18:51;;;;;;;23.23;12.90;;;;;;;42.19;35.24;101124.94;5031046;28;20428;-83
2023/05/09 08:21:17;;;;;;;24.73;11.97;;;;;;;42.21;35.31;101147.19;5032468;28;20578;-83
2023/05/09 08:23:42;;;;;;;29.50;12.80;;;;;;;42.27;35.12;101151.34;5030317;28;20431;-81
2023/05/09 08:26:08;;;;;;;25.43;13.37;;;;;;;42.37;35.20;101145.50;5030875;28;20181;-83
2023/05/09 08:28:34;;;;;;;22.20;11.13;;;;;;;42.43;35.08;101151.56;5030944;28;20212;-83
2023/05/09 08:31:00;;;;;;;19.83;11.40;;;;;;;42.35;35.26;101153.19;5030694;28;20585;-84
2023/05/09 08:33:26;;;;;;;24.87;11.80;;;;;;;42.33;35.53;101160.13;5030587;28;20181;-83
2023/05/09 08:35:53;;;;;;;17.47;11.00;;;;;;;42.30;35.33;101161.59;5030373;28;20451;-81
2023/05/09 08:38:19;;;;;;;30.77;12.60;;;;;;;42.31;35.35;101168.63;5030604;28;20220;-82
2023/05/09 08:40:46;;;;;;;18.67;11.60;;;;;;;42.44;35.46;101157.81;5030403;28;20474;-81
2023/05/09 08:43:12;;;;;;;23.53;11.33;;;;;;;42.51;35.37;101166.28;5030292;28;20424;-83
2023/05/09 08:45:46;;;;;;;16.53;10.30;;;;;;;42.51;35.28;101161.63;5030641;28;20939;-82
2023/05/09 08:48:15;;;;;;;28.60;12.37;;;;;;;42.42;35.22;101149.16;5030493;28;20825;-81
2023/05/09 08:50:42;;;;;;;21.10;11.90;;;;;;;42.42;35.75;101168.25;5030565;28;20534;-83
2023/05/09 08:53:08;;;;;;;18.57;10.87;;;;;;;42.46;35.68;101163.72;5030378;28;20411;-82
2023/05/09 08:55:35;;;;;;;27.27;13.10;;;;;;;42.42;35.66;101160.88;5030506;28;20447;-82
2023/05/09 08:58:02;;;;;;;21.43;12.30;;;;;;;42.46;35.67;101159.06;5030756;28;20523;-82
2023/05/09 09:00:30;;;;;;;16.23;8.80;;;;;;;42.32;35.88;101163.97;5030549;28;20467;-83
2023/05/09 09:03:00;;;;;;;18.17;10.47;;;;;;;42.44;35.57;101172.25;5030375;28;20477;-83
2023/05/09 09:05:28;;;;;;;21.40;11.43;;;;;;;42.20;36.44;101147.53;5029295;28;20457;-82
2023/05/09 09:07:54;;;;;;;19.60;9.70;;;;;;;42.43;35.99;101162.47;5030109;28;20430;-82
2023/05/09 09:10:24;;;;;;;21.83;10.73;;;;;;;42.42;35.86;101166.34;5030608;28;20459;-82
2023/05/09 09:12:53;;;;;;;18.17;10.23;;;;;;;42.40;36.01;101146.75;5031222;28;20846;-83
2023/05/09 09:15:21;;;;;;;26.07;12.90;;;;;;;42.48;36.10;101150.56;5034329;28;20538;-80
2023/05/09 09:17:50;;;;;;;17.53;11.30;;;;;;;42.47;36.35;101147.03;5035722;28;20412;-80
2023/05/09 09:20:20;;;;;;;23.30;10.57;;;;;;;42.43;35.95;101164.41;5033666;28;20450;-81
2023/05/09 09:22:47;;;;;;;20.50;12.20;;;;;;;42.55;36.08;101161.75;5032982;28;20958;-83
2023/05/09 09:25:13;;;;;;;24.00;14.70;;;;;;;42.55;36.06;101164.50;5033580;28;20969;-85
2023/05/09 09:27:40;;;;;;;18.60;10.30;;;;;;;42.21;36.69;101169.00;5033917;28;20434;-83
2023/05/09 09:30:11;;;;;;;18.13;9.80;;;;;;;42.28;36.41;101171.22;5033411;28;20183;-84
2023/05/09 09:32:38;;;;;;;16.00;9.23;;;;;;;42.47;36.26;101176.22;5032202;28;20448;-83
2023/05/09 09:35:06;;;;;;;14.97;8.87;;;;;;;42.51;36.30;101177.19;5029553;28;20438;-84
2023/05/09 09:37:39;;;;;;;20.13;10.03;;;;;;;42.49;36.39;101174.78;5030123;28;20451;-83
2023/05/09 09:40:09;;;;;;;15.20;8.10;;;;;;;42.60;36.02;101170.56;5033452;28;20598;-84
2023/05/09 09:42:43;;;;;;;13.20;7.80;;;;;;;42.61;36.34;101171.38;5029832;28;20466;-83
2023/05/09 09:45:13;;;;;;;16.60;9.53;;;;;;;42.63;35.63;101169.09;5033700;28;20412;-83
2023/05/09 09:47:41;;;;;;;28.33;11.40;;;;;;;42.70;36.14;101171.31;5033478;28;20439;-83
2023/05/09 09:50:12;;;;;;;22.17;10.07;;;;;;;42.58;35.61;101167.38;5033419;28;20438;-83
2023/05/09 09:52:42;;;;;;;18.77;9.70;;;;;;;42.72;36.35;101164.38;5033500;28;20470;-84
2023/05/09 09:55:08;;;;;;;19.10;9.80;;;;;;;42.61;35.85;101165.91;5033375;28;20416;-85
2023/05/09 09:57:36;;;;;;;16.73;9.87;;;;;;;42.58;35.84;101155.66;5032916;28;20438;-85
2023/05/09 10:00:04;;;;;;;16.10;11.37;;;;;;;42.74;35.81;101159.41;5032991;28;20423;-84
2023/05/09 10:02:30;;;;;;;14.67;9.53;;;;;;;42.70;36.04;101155.72;5033319;28;21026;-84
2023/05/09 10:05:06;;;;;;;16.70;8.60;;;;;;;42.72;36.04;101149.94;5032921;28;20463;-85
2023/05/09 10:07:34;;;;;;;18.47;9.40;;;;;;;42.73;35.83;101149.63;5032494;28;20550;-84
2023/05/09 10:10:05;;;;;;;15.10;8.93;;;;;;;42.69;36.25;101162.31;5032796;28;20439;-86
2023/05/09 10:12:36;;;;;;;15.47;9.87;;;;;;;42.84;36.25;101158.97;5033223;28;20430;-85
2023/05/09 10:15:09;;;;;;;14.47;8.77;;;;;;;42.88;35.67;101148.19;5032612;28;20420;-84
2023/05/09 10:17:35;;;;;;;22.93;9.03;;;;;;;42.90;35.63;101154.13;5033109;28;20563;-84
2023/05/09 10:20:05;;;;;;;15.60;8.23;;;;;;;42.80;35.94;101147.16;5032713;28;20977;-83
2023/05/09 10:22:33;;;;;;;13.93;8.43;;;;;;;42.91;35.82;101148.34;5032936;28;20440;-84
2023/05/09 10:25:07;;;;;;;13.73;7.80;;;;;;;43.08;35.58;101149.34;5032523;28;20431;-86
2023/05/09 10:27:37;;;;;;;13.10;8.80;;;;;;;43.03;35.70;101146.81;5032866;28;20423;-86
2023/05/09 10:30:17;;;;;;;17.97;8.50;;;;;;;42.97;35.32;101143.47;5029699;28;20424;-85
2023/05/09 10:32:50;;;;;;;20.70;8.50;;;;;;;43.09;35.69;101143.53;5018502;28;20448;-86
2023/05/09 10:35:18;;;;;;;14.70;8.83;;;;;;;43.09;35.33;101142.72;5028703;28;20444;-87
2023/05/09 10:37:45;;;;;;;15.27;7.40;;;;;;;43.16;35.38;101140.28;5032834;28;20450;-86
2023/05/09 10:40:14;;;;;;;16.40;6.77;;;;;;;43.09;35.56;101135.34;5032843;28;21386;-80
2023/05/09 10:42:44;;;;;;;21.63;9.23;;;;;;;43.06;35.43;101129.78;5032483;28;20447;-83
2023/05/09 10:45:13;;;;;;;13.67;7.50;;;;;;;43.11;35.43;101127.63;5032480;28;20481;-83
2023/05/09 10:47:42;;;;;;;13.57;7.83;;;;;;;43.15;35.96;101125.81;5032498;28;20435;-83
2023/05/09 10:50:13;;;;;;;12.73;7.57;;;;;;;43.10;35.74;101120.59;5032439;28;20790;-83
2023/05/09 10:53:12;;;;;;;15.97;10.20;;;;;;;43.19;35.35;101126.75;5032577;28;20874;-85
2023/05/09 10:55:55;;;;;;;20.70;9.90;;;;;;;43.15;35.28;101125.00;5023729;28;20936;-84
2023/05/09 10:58:39;;;;;;;17.10;10.50;;;;;;;43.29;35.68;101116.53;5032421;28;20424;-83
2023/05/09 11:01:05;;;;;;;15.23;8.30;;;;;;;43.31;35.51;101117.00;5032193;28;20462;-83
2023/05/09 11:03:58;;;;;;;13.10;7.50;;;;;;;43.19;35.62;101124.00;5032224;28;20462;-84
2023/05/09 11:06:50;;;;;;;17.30;8.13;;;;;;;43.33;35.13;101128.38;5033040;28;20490;-85
2023/05/09 11:09:28;;;;;;;15.83;9.67;;;;;;;43.33;35.21;101123.69;5032269;28;20514;-85
2023/05/09 11:11:56;;;;;;;18.07;7.50;;;;;;;43.40;35.36;101109.50;5031989;28;20419;-85
2023/05/09 11:14:43;;;;;;;18.00;8.47;;;;;;;43.27;35.16;101127.78;5031840;28;20463;-83
2023/05/09 11:17:22;;;;;;;21.73;8.93;;;;;;;43.42;35.03;101112.72;5032023;28;20962;-80